createdAt,value
2023-01-19T00:00:51.517Z,14.85
2023-01-19T00:03:18.546Z,12.50
2023-01-19T00:05:45.712Z,15.77
2023-01-19T00:08:17.056Z,13.13
2023-01-19T00:10:46.216Z,14.82
2023-01-19T00:13:13.912Z,13.77
2023-01-19T00:15:40.870Z,16.63
2023-01-19T00:18:09.685Z,11.77
2023-01-19T00:20:37.927Z,12.07
2023-01-19T00:23:05.175Z,12.88
2023-01-19T00:25:31.953Z,11.23
2023-01-19T00:28:01.440Z,11.30
2023-01-19T00:30:28.821Z,13.45
2023-01-19T00:32:55.989Z,12.20
2023-01-19T00:35:22.752Z,13.30
2023-01-19T00:37:49.460Z,14.57
2023-01-19T00:40:16.609Z,12.85
2023-01-19T00:42:48.358Z,14.98
2023-01-19T00:45:23.554Z,11.63
2023-01-19T00:47:54.756Z,10.63
2023-01-19T00:50:21.560Z,13.18
2023-01-19T00:52:48.231Z,9.55
2023-01-19T00:55:16.517Z,13.98
2023-01-19T00:57:43.400Z,12.55
2023-01-19T01:00:12.908Z,13.07
2023-01-19T01:02:41.168Z,11.80
2023-01-19T01:05:09.096Z,9.90
2023-01-19T01:07:40.878Z,12.07
2023-01-19T01:10:09.884Z,13.38
2023-01-19T01:12:37.502Z,13.30
2023-01-19T01:15:07.008Z,10.20
2023-01-19T01:17:34.127Z,12.48
2023-01-19T01:20:00.902Z,9.27
2023-01-19T01:22:27.740Z,11.80
2023-01-19T01:24:54.584Z,10.68
2023-01-19T01:27:21.351Z,12.02
2023-01-19T01:29:48.582Z,10.95
2023-01-19T01:32:16.766Z,9.38
2023-01-19T01:34:43.909Z,9.38
2023-01-19T01:37:10.699Z,12.50
2023-01-19T01:39:37.720Z,10.75
2023-01-19T01:42:17.851Z,12.95
2023-01-19T01:44:51.484Z,8.60
2023-01-19T01:47:23.994Z,11.27
2023-01-19T01:49:57.197Z,9.38
2023-01-19T01:52:26.988Z,9.15
2023-01-19T01:54:53.878Z,10.38
2023-01-19T01:57:20.809Z,9.90
2023-01-19T01:59:49.571Z,11.55
2023-01-19T02:02:40.372Z,13.77
2023-01-19T02:05:11.538Z,9.05
2023-01-19T02:08:12.516Z,14.90
2023-01-19T02:10:59.549Z,9.68
2023-01-19T02:13:28.569Z,10.90
2023-01-19T02:16:01.072Z,9.55
2023-01-19T02:18:29.812Z,9.20
2023-01-19T02:21:02.668Z,13.07
2023-01-19T02:23:43.239Z,9.70
2023-01-19T02:26:13.686Z,11.23
2023-01-19T02:28:46.419Z,13.07
2023-01-19T02:31:15.120Z,9.90
2023-01-19T02:33:42.158Z,10.45
2023-01-19T02:36:12.003Z,10.48
2023-01-19T02:38:40.322Z,12.43
2023-01-19T02:41:08.928Z,9.20
2023-01-19T02:43:37.316Z,10.02
2023-01-19T02:46:04.277Z,10.07
2023-01-19T02:48:31.282Z,13.25
2023-01-19T02:51:04.472Z,10.98
2023-01-19T02:54:05.845Z,12.95
2023-01-19T02:56:38.251Z,10.82
2023-01-19T02:59:25.399Z,10.38
2023-01-19T03:01:58.303Z,9.95
2023-01-19T03:04:31.562Z,13.43
2023-01-19T03:07:10.191Z,12.15
2023-01-19T03:09:49.453Z,12.60
2023-01-19T03:12:40.269Z,14.20
2023-01-19T03:15:20.947Z,12.73
2023-01-19T03:17:50.654Z,13.40
2023-01-19T03:20:22.670Z,10.77
2023-01-19T03:22:55.396Z,11.55
2023-01-19T03:25:24.703Z,10.45
2023-01-19T03:27:54.737Z,13.30
2023-01-19T03:30:27.024Z,13.43
2023-01-19T03:33:00.460Z,10.73
2023-01-19T03:35:33.139Z,11.80
2023-01-19T03:38:04.006Z,12.52
2023-01-19T03:40:32.651Z,11.18
2023-01-19T03:43:01.360Z,11.48
2023-01-19T03:45:28.539Z,15.30
2023-01-19T03:47:55.510Z,14.57
2023-01-19T03:50:27.371Z,13.57
2023-01-19T03:53:21.871Z,12.43
2023-01-19T03:55:51.373Z,11.98
2023-01-19T03:58:18.088Z,14.13
2023-01-19T04:00:44.839Z,12.45
2023-01-19T04:03:14.671Z,11.52
2023-01-19T04:05:41.941Z,16.45
2023-01-19T04:08:09.953Z,15.23
2023-01-19T04:10:36.919Z,13.00
2023-01-19T04:13:04.693Z,14.05
2023-01-19T04:15:32.469Z,13.93
2023-01-19T04:18:00.259Z,12.90
2023-01-19T04:20:28.274Z,16.75
2023-01-19T04:22:59.952Z,11.45
2023-01-19T04:25:27.788Z,12.07
2023-01-19T04:27:55.233Z,13.27
2023-01-19T04:30:22.695Z,16.52
2023-01-19T04:32:49.853Z,13.43
2023-01-19T04:35:17.062Z,13.85
2023-01-19T04:37:45.024Z,13.00
2023-01-19T04:40:12.391Z,14.93
2023-01-19T04:42:42.803Z,18.55
2023-01-19T04:45:10.046Z,12.73
2023-01-19T04:47:37.221Z,16.73
2023-01-19T04:50:05.712Z,13.45
2023-01-19T04:52:36.333Z,13.88
2023-01-19T04:55:06.565Z,20.27
2023-01-19T04:57:33.305Z,17.52
2023-01-19T05:00:00.156Z,12.57
2023-01-19T05:02:27.359Z,14.98
2023-01-19T05:04:54.760Z,11.45
2023-01-19T05:07:21.437Z,13.63
2023-01-19T05:09:48.231Z,15.40
2023-01-19T05:12:15.067Z,18.90
2023-01-19T05:14:41.858Z,14.70
2023-01-19T05:17:08.783Z,12.35
2023-01-19T05:19:35.562Z,14.80
2023-01-19T05:22:03.821Z,14.00
2023-01-19T05:24:30.661Z,16.05
2023-01-19T05:26:57.850Z,16.35
2023-01-19T05:29:24.676Z,14.25
2023-01-19T05:31:51.548Z,18.63
2023-01-19T05:34:18.686Z,17.60
2023-01-19T05:36:45.397Z,16.52
2023-01-19T05:39:12.210Z,13.88
2023-01-19T05:41:38.936Z,15.07
2023-01-19T05:44:05.728Z,14.50
2023-01-19T05:46:33.989Z,15.88
2023-01-19T05:49:04.165Z,16.15
2023-01-19T05:51:35.203Z,13.27
2023-01-19T05:54:02.324Z,17.40
2023-01-19T05:56:29.364Z,22.48
2023-01-19T05:58:56.061Z,16.63
2023-01-19T06:01:23.037Z,15.32
2023-01-19T06:03:49.788Z,13.73
2023-01-19T06:06:17.217Z,14.75
2023-01-19T06:08:44.775Z,11.50
2023-01-19T06:11:12.465Z,12.45
2023-01-19T06:13:42.800Z,10.40
2023-01-19T06:16:09.937Z,14.70
2023-01-19T06:18:36.662Z,16.65
2023-01-19T06:21:05.641Z,11.23
2023-01-19T06:23:33.942Z,14.25
2023-01-19T06:26:01.093Z,14.38
2023-01-19T06:28:27.905Z,16.42
2023-01-19T06:30:56.185Z,16.98
2023-01-19T06:33:24.982Z,15.98
2023-01-19T06:35:52.238Z,16.23
2023-01-19T06:38:19.398Z,12.00
2023-01-19T06:40:52.639Z,15.07
2023-01-19T06:43:20.356Z,14.98
2023-01-19T06:45:47.497Z,19.13
2023-01-19T06:48:14.459Z,15.75
2023-01-19T06:50:41.569Z,13.48
2023-01-19T06:53:08.403Z,15.00
2023-01-19T06:55:36.496Z,14.45
2023-01-19T06:58:03.427Z,15.07
2023-01-19T07:00:30.336Z,18.25
2023-01-19T07:02:57.094Z,15.35
2023-01-19T07:05:24.482Z,13.68
2023-01-19T07:07:55.499Z,14.95
2023-01-19T07:10:23.617Z,18.33
2023-01-19T07:12:50.766Z,10.68
2023-01-19T07:15:19.839Z,13.25
2023-01-19T07:17:46.640Z,14.27
2023-01-19T07:20:14.531Z,11.07
2023-01-19T07:22:46.540Z,14.43
2023-01-19T07:25:14.522Z,15.98
2023-01-19T07:27:41.303Z,15.90
2023-01-19T07:30:09.132Z,14.40
2023-01-19T07:32:36.067Z,16.83
2023-01-19T07:35:03.245Z,17.02
2023-01-19T07:37:30.090Z,15.90
2023-01-19T07:39:56.890Z,15.13
2023-01-19T07:42:23.596Z,16.35
2023-01-19T07:44:50.342Z,17.58
2023-01-19T07:47:17.348Z,14.00
2023-01-19T07:49:44.144Z,12.23
2023-01-19T07:52:10.967Z,15.57
2023-01-19T07:54:38.368Z,12.00
2023-01-19T07:57:05.123Z,15.73
2023-01-19T07:59:32.396Z,16.75
2023-01-19T08:01:59.773Z,23.00
2023-01-19T08:04:28.010Z,15.30
2023-01-19T08:06:56.039Z,19.58
2023-01-19T08:09:24.025Z,15.45
2023-01-19T08:11:50.753Z,12.40
2023-01-19T08:14:17.761Z,15.50
2023-01-19T08:16:46.135Z,17.55
2023-01-19T08:19:12.834Z,16.50
2023-01-19T08:21:39.635Z,18.10
2023-01-19T08:24:06.799Z,15.18
2023-01-19T08:26:35.380Z,12.68
2023-01-19T08:29:04.924Z,13.07
2023-01-19T08:31:32.052Z,15.20
2023-01-19T08:33:59.243Z,14.55
2023-01-19T08:36:26.586Z,15.48
2023-01-19T08:38:53.285Z,15.90
2023-01-19T08:41:20.231Z,15.75
2023-01-19T08:43:47.158Z,16.25
2023-01-19T08:46:21.341Z,12.98
2023-01-19T08:48:48.705Z,14.00
2023-01-19T08:51:16.175Z,12.05
2023-01-19T08:53:43.393Z,13.70
2023-01-19T08:56:14.498Z,12.07
2023-01-19T08:58:43.101Z,17.60
2023-01-19T09:01:11.282Z,11.85
2023-01-19T09:03:38.112Z,11.52
2023-01-19T09:06:08.823Z,14.10
2023-01-19T09:08:35.852Z,15.52
2023-01-19T09:11:02.702Z,13.10
2023-01-19T09:13:29.519Z,10.80
2023-01-19T09:15:56.334Z,14.23
2023-01-19T09:18:24.144Z,18.33
2023-01-19T09:20:51.198Z,12.65
2023-01-19T09:23:20.423Z,15.38
2023-01-19T09:25:48.143Z,12.60
2023-01-19T09:28:17.628Z,15.13
2023-01-19T09:30:45.159Z,9.73
2023-01-19T09:33:17.268Z,15.95
2023-01-19T09:35:45.997Z,13.10
2023-01-19T09:38:15.284Z,8.98
2023-01-19T09:41:17.573Z,13.75
2023-01-19T09:43:58.021Z,11.50
2023-01-19T09:46:36.972Z,10.85
2023-01-19T09:49:11.619Z,13.65
2023-01-19T09:51:41.575Z,12.40
2023-01-19T09:54:20.724Z,11.95
2023-01-19T09:56:51.320Z,12.10
2023-01-19T09:59:20.882Z,10.68
2023-01-19T10:02:02.858Z,9.57
2023-01-19T10:04:31.833Z,8.40
2023-01-19T10:07:10.760Z,8.55
2023-01-19T10:10:01.064Z,10.13
2023-01-19T10:12:58.285Z,7.85
2023-01-19T10:16:01.827Z,7.80
2023-01-19T10:18:35.703Z,6.55
2023-01-19T10:21:13.108Z,7.53
2023-01-19T10:23:57.310Z,6.00
2023-01-19T10:26:39.358Z,8.27
2023-01-19T10:29:26.074Z,7.45
2023-01-19T10:32:04.237Z,10.80
2023-01-19T10:34:30.999Z,7.75
2023-01-19T10:37:04.753Z,7.40
2023-01-19T10:39:31.830Z,7.93
2023-01-19T10:42:03.849Z,10.75
2023-01-19T10:44:36.667Z,7.95
2023-01-19T10:47:06.243Z,7.05
2023-01-19T10:49:44.748Z,8.70
2023-01-19T10:52:26.602Z,6.18
2023-01-19T10:54:53.978Z,7.85
2023-01-19T10:57:32.981Z,7.10
2023-01-19T10:59:59.940Z,9.85
2023-01-19T11:02:29.370Z,7.50
2023-01-19T11:04:59.304Z,10.30
2023-01-19T11:07:25.968Z,8.95
2023-01-19T11:10:17.505Z,19.17
2023-01-19T11:13:01.782Z,9.23
2023-01-19T11:15:44.637Z,8.80
2023-01-19T11:18:33.989Z,8.90
2023-01-19T11:21:09.806Z,8.15
2023-01-19T11:23:51.527Z,11.55
2023-01-19T11:26:32.406Z,10.35
2023-01-19T11:29:00.971Z,13.27
2023-01-19T11:31:27.819Z,9.93
2023-01-19T11:34:00.039Z,7.63
2023-01-19T11:36:32.568Z,9.60
2023-01-19T11:39:02.600Z,10.43
2023-01-19T11:41:37.187Z,8.68
2023-01-19T11:44:19.406Z,6.80
2023-01-19T11:46:50.754Z,10.70
2023-01-19T11:49:44.232Z,8.23
2023-01-19T11:52:10.898Z,6.72
2023-01-19T11:54:47.492Z,6.57
2023-01-19T11:57:17.209Z,9.15
2023-01-19T11:59:44.775Z,5.88
2023-01-19T12:02:26.269Z,6.30
2023-01-19T12:04:57.937Z,8.32
2023-01-19T12:07:30.363Z,7.68
2023-01-19T12:10:13.205Z,7.95
2023-01-19T12:12:41.200Z,5.57
2023-01-19T12:15:36.199Z,5.68
2023-01-19T12:18:04.791Z,11.40
2023-01-19T12:20:35.184Z,9.10
2023-01-19T12:23:22.527Z,6.88
2023-01-19T12:26:16.436Z,8.50
2023-01-19T12:28:48.311Z,6.53
2023-01-19T12:31:17.930Z,7.00
2023-01-19T12:33:44.843Z,5.35
2023-01-19T12:36:26.632Z,6.03
2023-01-19T12:39:04.282Z,7.95
2023-01-19T12:41:34.319Z,7.03
2023-01-19T12:44:16.001Z,9.98
2023-01-19T12:46:50.189Z,6.25
2023-01-19T12:49:38.434Z,6.70
2023-01-19T12:52:20.363Z,7.22
2023-01-19T12:55:12.772Z,5.07
2023-01-19T12:57:46.645Z,6.30
2023-01-19T13:00:22.393Z,5.60
2023-01-19T13:02:51.568Z,15.00
2023-01-19T13:05:47.820Z,9.55
2023-01-19T13:08:16.167Z,8.35
2023-01-19T13:11:09.494Z,6.97
2023-01-19T13:14:05.373Z,9.10
2023-01-19T13:16:32.081Z,5.63
2023-01-19T13:19:06.236Z,8.40
2023-01-19T13:21:34.710Z,7.25
2023-01-19T13:24:05.655Z,8.50
2023-01-19T13:26:38.573Z,7.57
2023-01-19T13:29:05.252Z,8.50
2023-01-19T13:31:40.233Z,6.35
2023-01-19T13:34:16.931Z,6.75
2023-01-19T13:36:45.955Z,6.53
2023-01-19T13:39:23.641Z,10.27
2023-01-19T13:41:54.764Z,6.80
2023-01-19T13:44:29.115Z,6.97
2023-01-19T13:46:57.578Z,8.32
2023-01-19T13:49:36.322Z,6.60
2023-01-19T13:52:14.159Z,10.05
2023-01-19T13:54:53.136Z,5.18
2023-01-19T13:57:30.997Z,6.63
2023-01-19T14:00:01.640Z,8.63
2023-01-19T14:02:28.418Z,8.27
2023-01-19T14:04:57.222Z,4.63
2023-01-19T14:07:26.563Z,6.35
2023-01-19T14:10:09.469Z,7.82
2023-01-19T14:12:43.534Z,4.70
2023-01-19T14:15:15.080Z,9.20
2023-01-19T14:17:42.245Z,6.00
2023-01-19T14:20:29.705Z,7.55
2023-01-19T14:22:56.496Z,8.68
2023-01-19T14:25:37.921Z,5.28
2023-01-19T14:28:28.542Z,11.38
2023-01-19T14:30:57.388Z,9.82
2023-01-19T14:33:45.375Z,9.88
2023-01-19T14:36:17.560Z,5.47
2023-01-19T14:38:46.629Z,6.25
2023-01-19T14:41:44.707Z,5.90
2023-01-19T14:44:18.767Z,6.20
2023-01-19T14:46:49.020Z,8.00
2023-01-19T14:49:46.813Z,7.28
2023-01-19T14:52:24.633Z,7.88
2023-01-19T14:54:54.247Z,9.00
2023-01-19T14:57:23.112Z,5.80
2023-01-19T14:59:50.418Z,5.80
2023-01-19T15:02:20.585Z,6.97
2023-01-19T15:04:48.286Z,6.03
2023-01-19T15:07:22.563Z,5.05
2023-01-19T15:09:50.072Z,6.07
2023-01-19T15:12:18.506Z,6.57
2023-01-19T15:14:45.915Z,6.55
2023-01-19T15:17:25.436Z,7.20
2023-01-19T15:19:56.125Z,7.07
2023-01-19T15:22:26.826Z,5.70
2023-01-19T15:24:57.566Z,7.35
2023-01-19T15:27:24.578Z,5.50
2023-01-19T15:29:51.343Z,5.75
2023-01-19T15:32:18.171Z,7.00
2023-01-19T15:34:47.725Z,5.45
2023-01-19T15:37:14.430Z,6.47
2023-01-19T15:39:41.227Z,11.13
2023-01-19T15:42:16.401Z,6.00
2023-01-19T15:44:45.022Z,5.45
2023-01-19T15:47:11.804Z,8.50
2023-01-19T15:49:38.586Z,7.32
2023-01-19T15:52:05.318Z,13.68
2023-01-19T15:54:32.026Z,10.77
2023-01-19T15:56:58.764Z,7.97
2023-01-19T15:59:25.846Z,9.82
2023-01-19T16:01:52.606Z,13.57
2023-01-19T16:04:19.619Z,13.68
2023-01-19T16:06:46.362Z,15.32
2023-01-19T16:09:18.397Z,10.38
2023-01-19T16:11:45.161Z,12.73
2023-01-19T16:14:12.278Z,7.90
2023-01-19T16:16:39.027Z,13.05
2023-01-19T16:19:05.811Z,12.52
2023-01-19T16:21:32.547Z,8.65
2023-01-19T16:23:59.270Z,8.40
2023-01-19T16:26:32.598Z,9.63
2023-01-19T16:29:01.770Z,11.10
2023-01-19T16:31:29.387Z,9.77
2023-01-19T16:33:56.259Z,11.95
2023-01-19T16:36:24.459Z,10.95
2023-01-19T16:38:51.445Z,8.13
2023-01-19T16:41:18.319Z,7.57
2023-01-19T16:43:49.509Z,8.30
2023-01-19T16:46:24.889Z,9.32
2023-01-19T16:48:52.275Z,10.77
2023-01-19T16:51:19.581Z,10.30
2023-01-19T16:53:48.461Z,8.32
2023-01-19T16:56:15.405Z,15.07
2023-01-19T16:58:42.488Z,10.07
2023-01-19T17:01:11.495Z,10.02
2023-01-19T17:03:38.630Z,10.23
2023-01-19T17:06:10.528Z,8.38
2023-01-19T17:08:37.497Z,11.52
2023-01-19T17:11:20.893Z,8.35
2023-01-19T17:13:57.065Z,10.18
2023-01-19T17:16:25.335Z,8.57
2023-01-19T17:18:52.265Z,26.65
2023-01-19T17:21:20.078Z,11.82
2023-01-19T17:23:48.922Z,8.57
2023-01-19T17:26:16.940Z,7.65
2023-01-19T17:28:44.348Z,21.33
2023-01-19T17:31:19.510Z,12.57
2023-01-19T17:33:48.801Z,8.60
2023-01-19T17:36:17.840Z,6.40
2023-01-19T17:38:44.542Z,9.95
2023-01-19T17:41:15.172Z,7.43
2023-01-19T17:43:41.939Z,9.90
2023-01-19T17:46:09.304Z,8.85
2023-01-19T17:48:36.189Z,10.05
2023-01-19T17:51:05.657Z,8.30
2023-01-19T17:53:33.289Z,8.18
2023-01-19T17:56:16.584Z,8.52
2023-01-19T17:58:44.339Z,7.57
2023-01-19T18:01:17.496Z,9.57
2023-01-19T18:03:44.426Z,13.02
2023-01-19T18:06:11.707Z,9.18
2023-01-19T18:08:44.380Z,7.93
2023-01-19T18:11:11.556Z,11.57
2023-01-19T18:13:39.346Z,8.85
2023-01-19T18:16:09.450Z,11.05
2023-01-19T18:18:38.106Z,10.45
2023-01-19T18:21:07.670Z,11.05
2023-01-19T18:23:34.866Z,9.82
2023-01-19T18:26:09.944Z,11.85
2023-01-19T18:28:37.324Z,10.82
2023-01-19T18:31:08.915Z,10.38
2023-01-19T18:33:36.522Z,11.43
2023-01-19T18:36:04.199Z,7.30
2023-01-19T18:38:31.429Z,9.32
2023-01-19T18:41:07.252Z,8.85
2023-01-19T18:43:34.348Z,13.13
2023-01-19T18:46:01.129Z,9.68
2023-01-19T18:48:31.358Z,9.73
2023-01-19T18:51:03.190Z,12.75
2023-01-19T18:53:31.669Z,10.85
2023-01-19T18:56:01.876Z,10.85
2023-01-19T18:58:29.791Z,10.80
2023-01-19T19:01:00.433Z,8.55
2023-01-19T19:03:27.726Z,16.55
2023-01-19T19:05:55.466Z,11.82
2023-01-19T19:08:26.389Z,17.42
2023-01-19T19:10:53.179Z,13.43
2023-01-19T19:13:21.846Z,11.77
2023-01-19T19:15:48.689Z,8.75
2023-01-19T19:18:16.281Z,11.40
2023-01-19T19:20:43.498Z,11.88
2023-01-19T19:23:13.512Z,10.05
2023-01-19T19:25:40.343Z,8.73
2023-01-19T19:28:07.245Z,9.73
2023-01-19T19:30:35.754Z,12.85
2023-01-19T19:33:03.200Z,10.75
2023-01-19T19:35:30.010Z,11.00
2023-01-19T19:37:57.787Z,10.45
2023-01-19T19:40:28.217Z,14.15
2023-01-19T19:42:57.572Z,11.50
2023-01-19T19:45:25.512Z,15.55
2023-01-19T19:47:52.311Z,11.13
2023-01-19T19:50:19.089Z,11.63
2023-01-19T19:52:45.884Z,14.18
2023-01-19T19:55:12.779Z,10.38
2023-01-19T19:57:39.623Z,14.65
2023-01-19T20:00:07.749Z,14.68
2023-01-19T20:02:34.533Z,19.88
2023-01-19T20:05:01.344Z,15.20
2023-01-19T20:07:28.120Z,12.02
2023-01-19T20:09:55.167Z,14.77
2023-01-19T20:12:22.137Z,12.82
2023-01-19T20:14:48.894Z,11.00
2023-01-19T20:17:15.627Z,11.43
2023-01-19T20:19:43.803Z,33.03
2023-01-19T20:22:10.509Z,17.23
2023-01-19T20:24:37.286Z,12.82
2023-01-19T20:27:04.327Z,12.25
2023-01-19T20:29:31.108Z,13.45
2023-01-19T20:31:58.179Z,12.38
2023-01-19T20:34:28.228Z,14.18
2023-01-19T20:36:55.430Z,22.73
2023-01-19T20:39:23.582Z,19.50
2023-01-19T20:41:51.439Z,17.90
2023-01-19T20:44:27.294Z,14.88
2023-01-19T20:46:54.982Z,18.60
2023-01-19T20:49:21.974Z,19.70
2023-01-19T20:51:50.014Z,19.35
2023-01-19T20:54:18.844Z,26.17
2023-01-19T20:56:45.703Z,19.63
2023-01-19T20:59:13.465Z,18.95
2023-01-19T21:01:41.593Z,18.85
2023-01-19T21:04:09.479Z,16.35
2023-01-19T21:06:36.838Z,24.17
2023-01-19T21:09:04.934Z,17.48
2023-01-19T21:11:31.688Z,17.05
2023-01-19T21:13:58.457Z,16.75
2023-01-19T21:16:27.944Z,16.38
2023-01-19T21:18:55.147Z,15.98
2023-01-19T21:21:30.229Z,13.23
2023-01-19T21:24:01.287Z,19.92
2023-01-19T21:26:33.350Z,15.15
2023-01-19T21:29:01.561Z,12.70
2023-01-19T21:31:28.714Z,14.13
2023-01-19T21:33:56.922Z,16.90
2023-01-19T21:36:24.635Z,12.10
2023-01-19T21:38:52.415Z,11.40
2023-01-19T21:41:19.729Z,11.75
2023-01-19T21:43:47.055Z,12.63
2023-01-19T21:46:17.991Z,12.15
2023-01-19T21:48:45.870Z,12.20
2023-01-19T21:51:13.253Z,13.32
2023-01-19T21:53:40.567Z,14.25
2023-01-19T21:56:09.463Z,12.20
2023-01-19T21:58:36.881Z,10.77
2023-01-19T22:01:15.587Z,12.07
2023-01-19T22:03:43.765Z,14.00
2023-01-19T22:06:13.407Z,12.23
2023-01-19T22:08:58.409Z,16.63
2023-01-19T22:11:25.483Z,12.07
2023-01-19T22:13:52.644Z,12.65
2023-01-19T22:16:21.819Z,13.23
2023-01-19T22:18:56.231Z,16.00
2023-01-19T22:21:25.019Z,14.63
2023-01-19T22:23:54.555Z,14.88
2023-01-19T22:26:22.029Z,13.52
2023-01-19T22:28:52.396Z,14.00
2023-01-19T22:31:19.552Z,13.85
2023-01-19T22:33:46.650Z,11.35
2023-01-19T22:36:16.189Z,11.75
2023-01-19T22:38:44.389Z,13.68
2023-01-19T22:41:13.036Z,15.48
2023-01-19T22:43:39.855Z,14.73
2023-01-19T22:46:08.741Z,16.77
2023-01-19T22:48:36.253Z,15.43
2023-01-19T22:51:03.421Z,12.55
2023-01-19T22:53:33.393Z,11.15
2023-01-19T22:56:00.231Z,14.43
2023-01-19T22:58:26.979Z,14.73
2023-01-19T23:00:53.814Z,11.23
2023-01-19T23:03:20.586Z,11.75
2023-01-19T23:05:47.356Z,12.57
2023-01-19T23:08:14.139Z,11.15
2023-01-19T23:10:40.962Z,13.63
2023-01-19T23:13:07.720Z,11.65
2023-01-19T23:15:34.955Z,11.48
2023-01-19T23:18:02.022Z,12.48
2023-01-19T23:20:28.832Z,12.45
2023-01-19T23:22:55.653Z,12.48
2023-01-19T23:25:22.442Z,12.15
2023-01-19T23:27:49.193Z,13.15
2023-01-19T23:30:16.252Z,14.23
2023-01-19T23:32:47.374Z,15.30
2023-01-19T23:35:14.731Z,10.55
2023-01-19T23:37:41.881Z,15.10
2023-01-19T23:43:57.579Z,13.73
2023-01-19T23:46:24.642Z,10.98
2023-01-19T23:48:51.723Z,12.45
2023-01-19T23:51:24.085Z,11.35
2023-01-19T23:53:51.342Z,13.70
2023-01-19T23:56:21.094Z,10.95
2023-01-19T23:58:52.678Z,18.23
